Aérodrome :







RETROUVEZ-NOUS SUR...

 
LOGIN :

S'inscrire | Disclaimer

   EN    FR    IT 

 









Légende :    VFR   VFR Marginal   IFR   IFR Intensif   IFR Très Intensif
Visi : 
Plafond : 
>= 8 km
>= 3000ft
5 à 8 km
1000 à 3000 ft
1500m à 5 km
500 à 1000 ft
800 à 1500m
200 à 500 ft
< 800m
< 200 ft
Symboles :   Orages  Brouillard  Fortes neiges  Fortes précipitations  Vent > 20 kt






- Altitude de l'aérodrome : 54 ft
- Code IATA : BEL


SBBE - Val de Cans Int.

DERNIER METAR :
  • 241730Z 03008KT 1000 R06/P2000D SHRA SCT010 BKN015 FEW025TCU 27/24 Q1010

METARs EXPIRÉS :
  • 241700Z 35011KT 8000 -RA BKN030 FEW033TCU 28/26 Q1010
  • 241600Z 06007KT 9999 SCT030 FEW033TCU 32/24 Q1011

TAF TAF SBBE
Valide du 24 à 18h jusqu'au 25 à 18h UTC


241500Z 2418/2518 06010KT 9999 SCT017 FEW025TCU TN25/2509Z TX30/2517Z
TEMPO 2418/2422 4000 TSRA BKN020 FEW025CB
BECMG 2501/2503 05007KT CAVOK
BECMG 2512/2514 SCT017
BECMG 2515/2517 36010KT SCT025 FEW030TCU
BECMG 2517/2518 3000 RA SCT015 RMK PGZ



MET'MAP, la Météo Aéronautique d'un coup d'oeil ! - Copyright ORBIFLY Décembre 2007 - Disclaimer

ORBIFLY MET'MAP TEAM :

Programmation & Développement : Alexandra Zaïnal
Sur une idée originale de : Baudouin d'Aumeries
Assistance à la programmation : Marc-Olivier Méhu
Soutien technique & logistique : Manuel Goepfert

Contact : metmap@orbifly.com




SOURCES & CREDITS :

   NOAA